Time;durP1;ratioP1;P1;durP2;ratioP2;P2;SDS_P1;SDS_P2;PMS_P1;PMS_P2;Temp;Humidity;BMP_temperature;BMP_pressure;BME280_temperature;BME280_humidity;BME280_pressure;Samples;Min_cycle;Max_cycle;Signal;HPM_P1;HPM_P2
2022/04/06 00:00:09;;;;;;;12.75;8.23;;;;;;;8.26;100.00;99533.34;5077598;28;20079;-84
2022/04/06 00:02:39;;;;;;;12.60;8.65;;;;;;;8.32;100.00;99529.81;5080598;28;20052;-83
2022/04/06 00:05:11;;;;;;;10.23;7.60;;;;;;;8.34;100.00;99527.16;5074358;28;20051;-82
2022/04/06 00:07:42;;;;;;;10.73;9.02;;;;;;;8.35;100.00;99521.06;5093711;28;20044;-85
2022/04/06 00:10:12;;;;;;;14.88;7.97;;;;;;;8.40;100.00;99512.25;5092129;28;20048;-85
2022/04/06 00:12:40;;;;;;;11.00;8.25;;;;;;;8.43;100.00;99521.78;5108955;28;20456;-84
2022/04/06 00:15:10;;;;;;;12.10;7.78;;;;;;;8.41;100.00;99532.25;5062312;28;20064;-83
2022/04/06 00:17:37;;;;;;;12.35;7.55;;;;;;;8.40;100.00;99520.09;5077259;28;20801;-83
2022/04/06 00:20:06;;;;;;;11.18;7.88;;;;;;;8.39;100.00;99523.56;5090724;28;20054;-83
2022/04/06 00:22:32;;;;;;;9.40;7.80;;;;;;;8.38;100.00;99527.09;5076562;28;20058;-84
2022/04/06 00:24:59;;;;;;;12.57;7.45;;;;;;;8.40;100.00;99529.66;5077089;28;20051;-85
2022/04/06 00:27:26;;;;;;;9.15;6.80;;;;;;;8.36;100.00;99525.41;5091779;28;20036;-83
2022/04/06 00:29:53;;;;;;;11.90;7.25;;;;;;;8.34;100.00;99538.44;5097299;28;20051;-84
2022/04/06 00:32:20;;;;;;;10.60;6.40;;;;;;;8.28;100.00;99531.59;5097268;28;20582;-85
2022/04/06 00:37:30;;;;;;;9.48;5.63;;;;;;;8.24;100.00;99534.31;5084916;28;20059;-82
2022/04/06 00:39:57;;;;;;;8.48;5.65;;;;;;;8.23;100.00;99536.03;5095465;28;20474;-84
2022/04/06 00:42:23;;;;;;;6.97;5.75;;;;;;;8.20;100.00;99527.41;5081622;28;20075;-83
2022/04/06 00:44:50;;;;;;;13.57;5.25;;;;;;;8.24;100.00;99527.34;5085523;28;20112;-83
2022/04/06 00:47:17;;;;;;;12.93;5.38;;;;;;;8.23;100.00;99522.16;5082673;28;20527;-82
2022/04/06 00:49:43;;;;;;;7.60;4.80;;;;;;;8.21;100.00;99527.41;5098093;28;20405;-83
2022/04/06 00:52:10;;;;;;;8.43;5.07;;;;;;;8.23;100.00;99515.19;5094630;28;20051;-83
2022/04/06 00:54:39;;;;;;;6.40;4.53;;;;;;;8.25;100.00;99523.84;5074296;28;20079;-83
2022/04/06 00:57:07;;;;;;;11.57;5.75;;;;;;;8.24;100.00;99529.09;5081467;28;20567;-84
2022/04/06 00:59:34;;;;;;;10.75;5.63;;;;;;;8.23;100.00;99517.78;5082305;28;20044;-84
2022/04/06 01:02:01;;;;;;;9.07;5.38;;;;;;;8.24;100.00;99516.06;5082576;28;20045;-81
2022/04/06 01:04:27;;;;;;;9.48;5.13;;;;;;;8.19;100.00;99521.34;5094278;28;20043;-83
2022/04/06 01:06:58;;;;;;;9.00;6.28;;;;;;;8.21;100.00;99519.56;5081912;28;20047;-83
2022/04/06 01:09:26;;;;;;;8.90;7.13;;;;;;;8.24;100.00;99510.84;5098108;28;20039;-82
2022/04/06 01:11:52;;;;;;;11.73;6.70;;;;;;;8.28;100.00;99509.88;5094922;27;20075;-84
2022/04/06 01:14:20;;;;;;;8.77;7.10;;;;;;;8.28;100.00;99508.13;5077357;28;20382;-84
2022/04/06 01:17:08;;;;;;;11.90;8.23;;;;;;;8.30;100.00;99510.72;5080176;28;20058;-86
2022/04/06 01:19:43;;;;;;;12.73;6.82;;;;;;;8.32;100.00;99510.66;5080684;28;20386;-84
2022/04/06 01:22:15;;;;;;;8.75;7.07;;;;;;;8.28;100.00;99502.91;5089528;28;20052;-84
2022/04/06 01:24:44;;;;;;;12.27;7.13;;;;;;;8.29;100.00;99501.16;5073243;28;20059;-84
2022/04/06 01:27:11;;;;;;;16.85;8.32;;;;;;;8.31;100.00;99512.44;5094636;28;20043;-85
2022/04/06 01:29:40;;;;;;;12.45;8.82;;;;;;;8.32;100.00;99513.28;5084899;28;20055;-84
2022/04/06 01:32:18;;;;;;;18.20;9.65;;;;;;;8.41;100.00;99506.16;5079449;28;20154;-84
2022/04/06 01:34:46;;;;;;;16.40;10.63;;;;;;;8.44;100.00;99510.47;5095027;28;20451;-83
2022/04/06 01:37:14;;;;;;;14.80;10.00;;;;;;;8.47;100.00;99509.59;5094565;28;20048;-83
2022/04/06 01:39:44;;;;;;;15.85;10.35;;;;;;;8.50;100.00;99509.50;5078110;28;20039;-83
2022/04/06 01:42:14;;;;;;;17.02;12.18;;;;;;;8.49;100.00;99508.66;5091414;28;20083;-84
2022/04/06 01:44:44;;;;;;;22.70;12.05;;;;;;;8.51;100.00;99503.41;5096204;28;20395;-84
2022/04/06 01:47:12;;;;;;;15.80;11.02;;;;;;;8.51;100.00;99506.88;5082354;28;20394;-85
2022/04/06 01:52:23;;;;;;;27.70;13.55;;;;;;;8.54;100.00;99491.19;5095148;28;20023;-84
2022/04/06 01:55:05;;;;;;;18.23;12.13;;;;;;;8.60;100.00;99508.44;5089852;28;20063;-83
2022/04/06 01:57:33;;;;;;;22.77;13.43;;;;;;;8.59;100.00;99504.13;5081409;28;20043;-84
2022/04/06 02:00:00;;;;;;;21.52;13.77;;;;;;;8.61;100.00;99499.75;5083702;28;20484;-83
2022/04/06 02:02:31;;;;;;;23.85;14.63;;;;;;;8.59;100.00;99497.16;5078594;28;20425;-83
2022/04/06 02:05:00;;;;;;;22.13;12.85;;;;;;;8.60;100.00;99491.06;5073374;28;20093;-83
2022/04/06 02:07:27;;;;;;;22.52;13.73;;;;;;;8.62;100.00;99493.63;5080077;28;20088;-83
2022/04/06 02:09:54;;;;;;;23.73;14.18;;;;;;;8.64;100.00;99504.03;5092940;28;20047;-84
2022/04/06 02:12:22;;;;;;;20.42;14.20;;;;;;;8.61;100.00;99497.97;5071133;28;20056;-83
2022/04/06 02:14:49;;;;;;;27.23;14.48;;;;;;;8.61;100.00;99499.75;5074648;28;20051;-83
2022/04/06 02:17:15;;;;;;;24.25;14.48;;;;;;;8.61;100.00;99492.75;5082722;28;20048;-85
2022/04/06 02:19:42;;;;;;;23.90;15.07;;;;;;;8.64;100.00;99489.22;5082104;28;20097;-84
2022/04/06 02:22:09;;;;;;;23.15;14.75;;;;;;;8.66;100.00;99486.63;5073729;28;20040;-84
2022/04/06 02:24:37;;;;;;;30.45;14.95;;;;;;;8.66;100.00;99492.69;5078645;28;20171;-84
2022/04/06 02:27:08;;;;;;;24.02;14.77;;;;;;;8.65;100.00;99484.91;5092915;28;20047;-83
2022/04/06 02:29:38;;;;;;;22.25;14.23;;;;;;;8.62;100.00;99480.59;5090584;28;20063;-84
2022/04/06 02:32:06;;;;;;;25.13;12.15;;;;;;;8.64;100.00;99481.41;5075458;28;20058;-85
2022/04/06 02:34:33;;;;;;;24.92;15.88;;;;;;;8.65;100.00;99472.69;5088751;28;20582;-83
2022/04/06 02:37:01;;;;;;;25.25;14.95;;;;;;;8.67;100.00;99480.50;5087694;28;20152;-85
2022/04/06 02:39:28;;;;;;;22.17;14.57;;;;;;;8.68;100.00;99470.03;5069871;28;20048;-85
2022/04/06 02:41:55;;;;;;;24.05;15.23;;;;;;;8.67;100.00;99462.22;5075509;28;20057;-85
2022/04/06 02:44:21;;;;;;;24.67;15.63;;;;;;;8.65;100.00;99470.09;5080071;28;20297;-85
2022/04/06 02:46:49;;;;;;;26.80;16.42;;;;;;;8.65;100.00;99464.88;5078503;28;20055;-85
2022/04/06 02:49:16;;;;;;;27.42;15.30;;;;;;;8.68;100.00;99461.34;5090384;28;20071;-84
2022/04/06 02:51:42;;;;;;;24.20;15.50;;;;;;;8.65;100.00;99461.41;5090388;28;20063;-86
2022/04/06 02:54:09;;;;;;;28.00;15.48;;;;;;;8.61;100.00;99447.56;5092573;28;20414;-84
2022/04/06 02:56:36;;;;;;;24.42;15.90;;;;;;;8.59;100.00;99454.56;5073120;28;20044;-84
2022/04/06 02:59:02;;;;;;;25.02;14.55;;;;;;;8.60;100.00;99449.31;5077579;28;20055;-84
2022/04/06 03:01:30;;;;;;;25.40;15.65;;;;;;;8.56;100.00;99450.25;5072779;28;20097;-85
2022/04/06 03:03:56;;;;;;;27.90;16.77;;;;;;;8.65;100.00;99448.38;5088308;28;20047;-85
2022/04/06 03:06:23;;;;;;;27.63;16.83;;;;;;;8.65;100.00;99437.94;5071480;28;20488;-85
2022/04/06 03:08:49;;;;;;;25.40;16.83;;;;;;;8.65;100.00;99445.75;5071856;28;20040;-87
2022/04/06 03:11:16;;;;;;;28.88;16.55;;;;;;;8.63;100.00;99444.91;5090767;28;20055;-85
2022/04/06 03:13:42;;;;;;;23.65;16.17;;;;;;;8.66;100.00;99447.50;5103679;27;20046;-85
2022/04/06 03:16:09;;;;;;;26.02;17.45;;;;;;;8.65;100.00;99440.53;5082375;28;20050;-84
2022/04/06 03:18:36;;;;;;;28.10;16.27;;;;;;;8.70;100.00;99443.91;5087746;28;20043;-84
2022/04/06 03:21:04;;;;;;;23.20;15.13;;;;;;;8.75;100.00;99434.25;5092982;28;20058;-84
2022/04/06 03:23:30;;;;;;;31.20;19.35;;;;;;;8.72;100.00;99447.34;5072563;28;20405;-85
2022/04/06 03:25:57;;;;;;;26.88;16.33;;;;;;;8.71;100.00;99432.59;5093086;28;20135;-84
2022/04/06 03:28:24;;;;;;;26.48;16.85;;;;;;;8.73;100.00;99428.19;5075510;28;20043;-84
2022/04/06 03:30:50;;;;;;;28.73;18.05;;;;;;;8.71;100.00;99427.38;5082076;28;20036;-84
2022/04/06 03:33:17;;;;;;;23.08;15.73;;;;;;;8.68;100.00;99430.03;5075616;28;20043;-86
2022/04/06 03:35:43;;;;;;;25.00;16.73;;;;;;;8.68;99.79;99427.44;5094015;28;20161;-84
2022/04/06 03:38:10;;;;;;;30.63;17.45;;;;;;;8.72;99.45;99414.28;5078718;28;20104;-84
2022/04/06 03:40:36;;;;;;;32.10;17.25;;;;;;;8.69;99.51;99409.13;5074446;28;20663;-84
2022/04/06 03:43:04;;;;;;;29.90;17.25;;;;;;;8.74;98.77;99407.28;5075579;28;20502;-84
2022/04/06 03:45:30;;;;;;;34.05;18.27;;;;;;;8.77;98.59;99417.66;5090650;28;20047;-85
2022/04/06 03:47:57;;;;;;;31.15;19.08;;;;;;;8.76;98.64;99422.91;5077371;28;20050;-84
2022/04/06 03:50:24;;;;;;;31.63;17.88;;;;;;;8.74;97.96;99406.44;5071444;28;20046;-85
2022/04/06 03:52:50;;;;;;;24.85;17.10;;;;;;;8.74;98.16;99417.72;5075846;28;20369;-84
2022/04/06 03:55:17;;;;;;;29.30;18.23;;;;;;;8.76;98.00;99428.09;5077938;28;20395;-84
2022/04/06 03:57:43;;;;;;;26.02;17.73;;;;;;;8.73;97.58;99418.59;5090523;28;20044;-85
2022/04/06 04:00:12;;;;;;;30.00;18.83;;;;;;;8.73;97.71;99425.56;5075909;28;20048;-85
2022/04/06 04:02:39;;;;;;;32.40;18.95;;;;;;;8.74;97.37;99422.09;5091626;28;20062;-87
2022/04/06 04:05:06;;;;;;;35.85;19.67;;;;;;;8.73;97.51;99428.19;5093158;28;20044;-86
2022/04/06 04:07:37;;;;;;;27.48;19.30;;;;;;;8.70;97.68;99430.88;5091303;28;20075;-87
2022/04/06 04:10:09;;;;;;;31.77;17.48;;;;;;;8.69;97.91;99422.16;5079144;28;20059;-85
2022/04/06 04:12:36;;;;;;;28.73;19.08;;;;;;;8.70;97.88;99426.50;5091296;28;20552;-85
2022/04/06 04:15:04;;;;;;;28.77;19.95;;;;;;;8.72;97.06;99435.16;5079596;28;20089;-84
2022/04/06 04:17:30;;;;;;;29.15;19.70;;;;;;;8.70;96.78;99429.09;5093586;28;20116;-84
2022/04/06 04:19:57;;;;;;;35.50;20.15;;;;;;;8.71;96.70;99409.97;5089654;28;20036;-84
2022/04/06 04:22:24;;;;;;;30.90;19.42;;;;;;;8.71;96.77;99412.56;5072410;28;20055;-84
2022/04/06 04:24:51;;;;;;;34.00;18.98;;;;;;;8.69;96.66;99429.16;5081650;28;20448;-84
2022/04/06 04:27:17;;;;;;;30.45;19.52;;;;;;;8.70;96.04;99421.28;5112150;27;20052;-84
2022/04/06 04:29:44;;;;;;;25.38;19.50;;;;;;;8.70;96.06;99423.91;5085952;28;20043;-85
2022/04/06 04:32:11;;;;;;;30.92;20.05;;;;;;;8.71;95.61;99416.94;5086338;28;20061;-84
2022/04/06 04:34:38;;;;;;;29.88;19.75;;;;;;;8.70;95.95;99418.69;5088271;28;20050;-83
2022/04/06 04:37:05;;;;;;;27.45;18.95;;;;;;;8.67;95.65;99413.53;5091822;28;20146;-85
2022/04/06 04:39:31;;;;;;;33.30;21.20;;;;;;;8.65;95.45;99415.31;5085008;28;20048;-83
2022/04/06 04:41:58;;;;;;;36.35;20.25;;;;;;;8.67;94.72;99421.38;5083832;28;20134;-84
2022/04/06 04:44:25;;;;;;;26.88;19.30;;;;;;;8.66;94.84;99421.41;5097744;28;20067;-85
2022/04/06 04:46:51;;;;;;;29.25;18.90;;;;;;;8.67;94.51;99418.75;5082835;28;20135;-84
2022/04/06 04:49:20;;;;;;;27.45;18.55;;;;;;;8.67;94.84;99416.16;5082944;28;20039;-84
2022/04/06 04:51:46;;;;;;;25.13;18.27;;;;;;;8.67;94.12;99426.56;5079478;28;20052;-83
2022/04/06 04:54:13;;;;;;;37.20;21.13;;;;;;;8.67;93.53;99423.09;5079585;27;20039;-85
2022/04/06 04:56:41;;;;;;;25.35;19.05;;;;;;;8.69;93.53;99424.78;5093183;27;20827;-83
2022/04/06 04:59:08;;;;;;;29.52;19.83;;;;;;;8.66;93.61;99424.00;5094809;28;20521;-83
2022/04/06 05:01:35;;;;;;;26.92;17.83;;;;;;;8.68;93.08;99422.22;5094525;28;20044;-82
2022/04/06 05:04:01;;;;;;;28.17;18.95;;;;;;;8.69;93.40;99422.16;5084995;28;20399;-85
2022/04/06 05:06:28;;;;;;;30.15;19.48;;;;;;;8.71;92.59;99427.38;5083219;28;21042;-84
2022/04/06 05:08:54;;;;;;;26.60;19.65;;;;;;;8.72;92.63;99419.50;5097343;28;20040;-84
2022/04/06 05:11:21;;;;;;;31.95;21.08;;;;;;;8.73;92.62;99425.56;5097158;28;20115;-84
2022/04/06 05:13:48;;;;;;;27.55;21.05;;;;;;;8.71;92.50;99425.63;5075211;28;20483;-83
2022/04/06 05:16:14;;;;;;;28.73;19.48;;;;;;;8.74;92.40;99416.88;5097528;28;20493;-85
2022/04/06 05:18:40;;;;;;;31.95;21.15;;;;;;;8.71;92.43;99424.78;5077906;28;20044;-85
2022/04/06 05:21:07;;;;;;;25.40;19.25;;;;;;;8.72;92.75;99427.34;5089528;28;20058;-83
2022/04/06 05:23:35;;;;;;;33.10;20.52;;;;;;;8.70;93.00;99426.50;5089926;28;20043;-83
2022/04/06 05:26:01;;;;;;;33.40;22.08;;;;;;;8.70;93.91;99425.66;5078196;28;20044;-83
2022/04/06 05:28:28;;;;;;;34.72;22.42;;;;;;;8.68;94.91;99435.25;5079598;28;20055;-85
2022/04/06 05:30:54;;;;;;;39.85;23.35;;;;;;;8.62;97.10;99433.63;5077899;28;20127;-82
2022/04/06 05:33:21;;;;;;;33.30;22.42;;;;;;;8.49;98.97;99437.41;5093871;28;20287;-83
2022/04/06 05:35:48;;;;;;;34.97;22.38;;;;;;;8.41;100.00;99432.31;5077608;28;20056;-85
2022/04/06 05:38:14;;;;;;;33.05;21.02;;;;;;;8.34;100.00;99431.53;5097778;28;20043;-83
2022/04/06 05:40:41;;;;;;;37.60;22.05;;;;;;;8.27;100.00;99438.63;5079538;28;20128;-86
2022/04/06 05:43:10;;;;;;;34.15;21.48;;;;;;;8.24;100.00;99420.44;5093610;28;20217;-85
2022/04/06 05:45:36;;;;;;;41.28;23.50;;;;;;;8.14;100.00;99447.56;5080044;28;20521;-83
2022/04/06 05:48:05;;;;;;;37.00;23.08;;;;;;;8.06;100.00;99437.28;5089572;28;20051;-85
2022/04/06 05:50:32;;;;;;;34.53;21.63;;;;;;;8.04;100.00;99440.78;5081561;28;20102;-86
2022/04/06 05:52:59;;;;;;;37.17;22.25;;;;;;;7.98;100.00;99446.09;5093119;28;20379;-86
2022/04/06 05:55:25;;;;;;;40.83;23.50;;;;;;;7.95;100.00;99434.00;5078460;28;20162;-83
2022/04/06 05:57:52;;;;;;;35.15;20.92;;;;;;;7.92;100.00;99437.50;5080995;28;20355;-83
2022/04/06 06:00:19;;;;;;;38.80;20.92;;;;;;;7.92;100.00;99434.91;5075447;28;20048;-86
2022/04/06 06:02:46;;;;;;;35.67;22.52;;;;;;;7.90;100.00;99436.69;5093027;28;20028;-82
2022/04/06 06:05:13;;;;;;;34.08;21.17;;;;;;;7.89;100.00;99449.75;5078369;28;20068;-86
2022/04/06 06:07:40;;;;;;;31.58;20.00;;;;;;;7.86;100.00;99436.75;5078165;28;20051;-86
2022/04/06 06:10:07;;;;;;;34.00;20.95;;;;;;;7.84;100.00;99436.81;5091097;28;20048;-84
2022/04/06 06:12:34;;;;;;;34.97;19.50;;;;;;;7.87;100.00;99435.88;5091282;28;20059;-84
2022/04/06 06:15:01;;;;;;;33.95;20.65;;;;;;;7.90;100.00;99436.69;5080079;28;20047;-85
2022/04/06 06:17:28;;;;;;;33.25;19.00;;;;;;;7.95;100.00;99445.28;5069190;28;20048;-86
2022/04/06 06:19:55;;;;;;;28.88;18.27;;;;;;;8.02;100.00;99432.16;5080352;28;20048;-84
2022/04/06 06:22:21;;;;;;;29.42;16.67;;;;;;;8.09;100.00;99445.03;5077033;28;20138;-85
2022/04/06 06:24:48;;;;;;;29.55;19.52;;;;;;;8.16;100.00;99443.19;5093648;28;20096;-86
2022/04/06 06:27:19;;;;;;;30.65;19.50;;;;;;;8.22;100.00;99443.06;5094698;27;20071;-87
2022/04/06 06:29:47;;;;;;;36.95;18.15;;;;;;;8.31;100.00;99438.59;5095627;28;20051;-85
2022/04/06 06:32:14;;;;;;;31.50;17.38;;;;;;;8.36;100.00;99440.19;5076808;28;20480;-86
2022/04/06 06:34:41;;;;;;;28.80;17.40;;;;;;;8.40;100.00;99434.03;5084272;28;20047;-84
2022/04/06 06:37:08;;;;;;;31.50;17.90;;;;;;;8.47;99.04;99410.47;5083564;28;20055;-85
2022/04/06 06:39:35;;;;;;;26.27;16.98;;;;;;;8.50;99.13;99419.09;5095508;28;20047;-83
2022/04/06 06:42:02;;;;;;;32.17;17.63;;;;;;;8.53;98.70;99428.63;5075996;28;20044;-85
2022/04/06 06:44:29;;;;;;;32.92;18.92;;;;;;;8.57;98.66;99428.50;5085023;28;20557;-85
2022/04/06 06:46:56;;;;;;;28.48;17.88;;;;;;;8.59;96.85;99418.03;5074320;28;20395;-85
2022/04/06 06:49:22;;;;;;;29.35;17.75;;;;;;;8.62;96.96;99425.81;5097880;28;20039;-83
2022/04/06 06:51:49;;;;;;;26.00;16.75;;;;;;;8.69;95.88;99423.94;5076970;28;20054;-83
2022/04/06 06:54:15;;;;;;;27.63;17.15;;;;;;;8.73;94.43;99413.38;5100087;28;20047;-84
2022/04/06 06:56:42;;;;;;;23.92;17.00;;;;;;;8.78;94.37;99415.91;5090388;28;20126;-84
2022/04/06 06:59:08;;;;;;;23.85;16.05;;;;;;;8.83;92.81;99423.66;5096532;28;20047;-86
2022/04/06 07:01:35;;;;;;;31.77;16.48;;;;;;;8.88;92.32;99411.34;5080517;28;20043;-87
2022/04/06 07:04:02;;;;;;;26.45;16.20;;;;;;;8.89;91.74;99419.16;5078966;28;20055;-83
2022/04/06 07:06:28;;;;;;;25.70;15.25;;;;;;;8.94;90.51;99419.91;5081087;28;20136;-83
2022/04/06 07:08:55;;;;;;;29.00;15.73;;;;;;;8.96;89.78;99422.47;5096085;28;20048;-85
2022/04/06 07:11:22;;;;;;;25.98;15.95;;;;;;;8.97;88.96;99418.09;5076979;28;20051;-84
2022/04/06 07:13:48;;;;;;;24.23;15.55;;;;;;;9.00;89.39;99415.44;5089639;28;20047;-83
2022/04/06 07:16:15;;;;;;;24.25;15.48;;;;;;;9.04;88.02;99415.31;5080974;28;20428;-82
2022/04/06 07:18:42;;;;;;;18.75;13.43;;;;;;;9.07;87.09;99415.28;5095927;28;20051;-83
2022/04/06 07:21:09;;;;;;;31.50;14.65;;;;;;;9.12;87.19;99419.53;5080086;28;20528;-83
2022/04/06 07:23:36;;;;;;;22.02;13.95;;;;;;;9.19;85.70;99408.03;5096270;28;20576;-84
2022/04/06 07:26:04;;;;;;;20.77;14.93;;;;;;;9.18;85.50;99407.19;5077422;28;20050;-86
2022/04/06 07:28:32;;;;;;;18.85;13.95;;;;;;;9.20;84.72;99397.53;5082478;28;20106;-83
2022/04/06 07:31:00;;;;;;;20.77;12.88;;;;;;;9.24;84.39;99393.13;5090343;28;20117;-83
2022/04/06 07:33:26;;;;;;;19.90;13.38;;;;;;;9.31;84.09;99393.81;5095001;28;20043;-83
2022/04/06 07:35:53;;;;;;;16.50;12.25;;;;;;;9.31;82.87;99392.09;5078920;28;20040;-85
2022/04/06 07:38:20;;;;;;;19.52;12.63;;;;;;;9.35;82.92;99398.09;5080647;28;20043;-82
2022/04/06 07:40:46;;;;;;;16.70;12.02;;;;;;;9.38;81.77;99391.03;5092823;28;20052;-84
2022/04/06 07:43:13;;;;;;;12.55;10.93;;;;;;;9.45;80.32;99389.13;5075301;28;20050;-85
2022/04/06 07:45:40;;;;;;;15.95;10.75;;;;;;;9.47;80.16;99400.41;5075969;28;20048;-85
2022/04/06 07:48:06;;;;;;;14.32;11.23;;;;;;;9.60;79.80;99400.97;5075260;28;20544;-85
2022/04/06 07:50:33;;;;;;;15.32;9.82;;;;;;;9.65;78.53;99375.56;5090177;28;20040;-82
2022/04/06 07:53:00;;;;;;;12.13;10.35;;;;;;;9.62;78.72;99400.91;5075314;28;20052;-83
2022/04/06 07:55:27;;;;;;;13.10;9.85;;;;;;;9.59;77.75;99396.63;5089986;28;20032;-86
2022/04/06 07:57:55;;;;;;;15.73;9.07;;;;;;;9.65;77.42;99391.25;5096755;28;20079;-84
2022/04/06 08:00:22;;;;;;;15.82;9.40;;;;;;;9.69;76.41;99398.13;5089665;28;20147;-86
2022/04/06 08:02:51;;;;;;;12.13;9.60;;;;;;;9.67;76.89;99407.72;5074987;28;20047;-84
2022/04/06 08:05:19;;;;;;;10.55;8.48;;;;;;;9.73;76.39;99411.97;5073539;28;20593;-83
2022/04/06 08:07:48;;;;;;;11.60;8.38;;;;;;;9.70;76.43;99398.94;5058700;28;20044;-84
2022/04/06 08:10:17;;;;;;;10.55;8.75;;;;;;;9.66;76.09;99405.16;5071485;28;20144;-85
2022/04/06 08:12:44;;;;;;;15.02;8.73;;;;;;;9.67;75.57;99405.13;5086211;28;20052;-85
2022/04/06 08:15:11;;;;;;;12.73;8.02;;;;;;;9.57;74.99;99414.97;5092170;28;20059;-83
2022/04/06 08:17:44;;;;;;;9.13;8.27;;;;;;;9.48;75.99;99411.69;5075701;28;20048;-83
2022/04/06 08:20:13;;;;;;;12.38;8.55;;;;;;;9.47;76.15;99416.06;5094653;28;20046;-83
2022/04/06 08:22:43;;;;;;;11.45;8.00;;;;;;;9.48;75.30;99409.09;5074692;28;20058;-82
2022/04/06 08:25:10;;;;;;;13.45;8.70;;;;;;;9.58;74.88;99405.34;5057420;28;20059;-84
2022/04/06 08:27:40;;;;;;;8.80;7.95;;;;;;;9.73;74.94;99401.50;5075423;28;20056;-86
2022/04/06 08:30:09;;;;;;;11.57;8.25;;;;;;;9.82;73.42;99409.09;5076020;28;20141;-84
2022/04/06 08:32:36;;;;;;;9.88;7.45;;;;;;;9.83;72.56;99407.34;5082143;28;20048;-82
2022/04/06 08:35:03;;;;;;;10.55;7.10;;;;;;;9.86;72.25;99402.06;5092849;28;20695;-82
2022/04/06 08:37:33;;;;;;;11.60;7.88;;;;;;;9.82;72.09;99400.44;5093332;28;20044;-83
2022/04/06 08:40:00;;;;;;;10.75;6.68;;;;;;;9.74;71.82;99380.56;5080072;28;20147;-88
2022/04/06 08:42:31;;;;;;;9.07;7.43;;;;;;;9.63;71.50;99400.03;5078989;28;20051;-85
2022/04/06 08:44:58;;;;;;;12.30;6.68;;;;;;;9.57;71.48;99398.44;5081256;28;20140;-82
2022/04/06 08:47:29;;;;;;;9.10;6.45;;;;;;;9.49;71.83;99400.34;5093924;28;20047;-82
2022/04/06 08:49:56;;;;;;;10.55;6.65;;;;;;;9.49;72.25;99398.63;5076437;28;20048;-84
2022/04/06 08:52:24;;;;;;;9.70;5.78;;;;;;;9.48;72.05;99402.13;5078610;28;20613;-85
2022/04/06 08:54:50;;;;;;;9.23;6.78;;;;;;;9.45;71.91;99394.34;5084211;28;20043;-85
2022/04/06 08:57:20;;;;;;;13.15;5.78;;;;;;;9.55;72.21;99392.38;5080249;28;20067;-83
2022/04/06 08:59:49;;;;;;;7.55;5.78;;;;;;;9.65;71.63;99400.81;5089694;28;20050;-84
2022/04/06 09:02:23;;;;;;;7.68;6.60;;;;;;;9.69;70.55;99408.56;5081717;28;20056;-84
2022/04/06 09:04:54;;;;;;;11.75;5.50;;;;;;;9.81;70.16;99390.88;5096301;27;20048;-83
2022/04/06 09:07:25;;;;;;;8.07;5.95;;;;;;;9.90;69.78;99390.63;5093799;28;20140;-85
2022/04/06 09:09:53;;;;;;;7.60;5.60;;;;;;;9.85;69.92;99390.72;5097475;28;20063;-85
2022/04/06 09:12:23;;;;;;;8.27;5.15;;;;;;;9.86;69.48;99392.44;5096403;28;20051;-84
2022/04/06 09:15:07;;;;;;;9.30;5.13;;;;;;;9.79;69.46;99383.06;5079868;28;20056;-83
2022/04/06 09:17:45;;;;;;;8.65;5.30;;;;;;;9.61;70.30;99389.63;5088068;28;20163;-83
2022/04/06 09:20:17;;;;;;;10.73;5.28;;;;;;;9.60;70.97;99398.34;5084461;28;20047;-85
2022/04/06 09:22:43;;;;;;;12.00;5.10;;;;;;;9.60;71.46;99374.84;5080702;28;20048;-85
2022/04/06 09:25:10;;;;;;;8.93;5.63;;;;;;;9.63;71.41;99400.88;5081529;28;20131;-82
2022/04/06 09:27:41;;;;;;;7.18;5.30;;;;;;;9.55;71.92;99374.94;5084335;28;20050;-83
2022/04/06 09:30:10;;;;;;;10.35;5.15;;;;;;;9.51;72.14;99380.28;5096925;28;20143;-83
2022/04/06 09:32:37;;;;;;;7.72;4.97;;;;;;;9.45;72.74;99402.19;5084640;28;20047;-86
2022/04/06 09:35:28;;;;;;;6.68;5.07;;;;;;;9.52;72.98;99390.69;5082878;28;20048;-84
2022/04/06 09:38:35;;;;;;;9.02;5.22;;;;;;;9.48;72.75;99396.91;5079816;28;20071;-84
2022/04/06 09:41:06;;;;;;;7.88;4.97;;;;;;;9.47;73.69;99395.19;5102645;27;20122;-86
2022/04/06 09:43:35;;;;;;;8.55;5.28;;;;;;;9.49;72.63;99384.69;5076520;28;20125;-84
2022/04/06 09:49:15;;;;;;;12.27;4.90;;;;;;;9.40;73.36;99376.19;5085888;28;20550;-84
2022/04/06 09:51:44;;;;;;;7.85;5.15;;;;;;;9.37;73.65;99389.34;5083744;28;20044;-84
2022/04/06 09:54:13;;;;;;;7.55;5.10;;;;;;;9.35;73.87;99395.50;5095046;28;20042;-85
2022/04/06 09:56:41;;;;;;;7.30;5.13;;;;;;;9.37;74.02;99384.13;5078921;28;20051;-83
2022/04/06 09:59:14;;;;;;;6.82;5.00;;;;;;;9.32;74.13;99390.31;5080415;28;20467;-85
2022/04/06 10:01:46;;;;;;;9.32;6.20;;;;;;;9.29;74.17;99393.88;5073237;28;20048;-83
2022/04/06 10:04:14;;;;;;;11.27;5.50;;;;;;;9.29;73.77;99380.81;5094526;28;20044;-84
2022/04/06 10:06:42;;;;;;;10.00;5.72;;;;;;;9.32;73.51;99379.88;5093208;28;20040;-84
2022/04/06 10:09:14;;;;;;;6.85;5.18;;;;;;;9.49;73.33;99392.53;5079896;28;20054;-84
2022/04/06 10:11:42;;;;;;;5.28;4.70;;;;;;;9.79;72.13;99390.91;5074277;28;20446;-84
2022/04/06 10:14:11;;;;;;;10.68;4.53;;;;;;;10.10;69.91;99390.94;5095668;28;20047;-84
2022/04/06 10:16:39;;;;;;;7.05;4.25;;;;;;;10.20;68.92;99381.06;5094483;28;20159;-83
2022/04/06 10:19:09;;;;;;;8.70;4.07;;;;;;;10.12;67.61;99375.19;5079938;28;20055;-84
2022/04/06 10:21:56;;;;;;;4.32;3.92;;;;;;;9.89;67.97;99381.06;5076488;28;20731;-83
2022/04/06 10:24:30;;;;;;;8.32;3.45;;;;;;;9.81;68.96;99389.09;5074081;28;20043;-83
2022/04/06 10:27:10;;;;;;;5.47;4.18;;;;;;;9.75;69.04;99374.44;5082782;28;20111;-84
2022/04/06 10:30:16;;;;;;;10.43;4.15;;;;;;;9.69;69.44;99376.34;5081395;28;20051;-83
2022/04/06 10:32:46;;;;;;;12.95;6.43;;;;;;;9.63;70.13;99382.59;5097574;28;20079;-85
2022/04/06 10:35:32;;;;;;;6.90;5.15;;;;;;;9.56;69.80;99373.19;5079489;28;20051;-82
2022/04/06 10:37:58;;;;;;;5.53;3.50;;;;;;;9.50;70.46;99387.25;5079361;28;20079;-82
2022/04/06 10:40:48;;;;;;;8.20;4.25;;;;;;;9.48;71.01;99376.00;5088960;28;20044;-83
2022/04/06 10:43:36;;;;;;;7.65;4.97;;;;;;;9.47;70.71;99373.44;5083381;28;20052;-83
2022/04/06 10:46:11;;;;;;;6.45;4.40;;;;;;;9.34;71.72;99372.88;5091890;28;20044;-83
2022/04/06 10:48:58;;;;;;;6.78;4.18;;;;;;;9.26;72.66;99365.22;5094815;28;20048;-84
2022/04/06 10:51:33;;;;;;;5.25;3.80;;;;;;;9.32;72.86;99370.31;5091353;28;20035;-84
2022/04/06 10:54:12;;;;;;;6.97;4.10;;;;;;;9.33;72.65;99355.47;5074718;28;20052;-83
2022/04/06 10:56:52;;;;;;;8.32;4.22;;;;;;;9.40;73.07;99364.91;5093098;28;20051;-83
2022/04/06 10:59:21;;;;;;;4.07;3.67;;;;;;;9.56;72.32;99376.66;5096964;27;20106;-84
2022/04/06 11:01:49;;;;;;;12.00;5.20;;;;;;;9.55;72.54;99364.47;5072858;28;20394;-83
2022/04/06 11:04:23;;;;;;;5.90;5.03;;;;;;;9.80;71.46;99353.41;5072910;28;20063;-83
2022/04/06 11:07:00;;;;;;;7.38;4.40;;;;;;;10.29;69.16;99342.50;5085325;28;20050;-83
2022/04/06 11:12:24;;;;;;;6.35;3.83;;;;;;;10.94;65.86;99341.44;5069413;28;20128;-83
2022/04/06 11:15:11;;;;;;;11.20;5.03;;;;;;;10.85;66.31;99328.63;5074312;28;20043;-84
2022/04/06 11:17:41;;;;;;;10.65;5.00;;;;;;;10.69;66.43;99344.81;5089707;28;20122;-83
2022/04/06 11:20:21;;;;;;;7.15;4.55;;;;;;;10.62;67.16;99330.19;5075377;28;20104;-84
2022/04/06 11:22:54;;;;;;;9.95;5.20;;;;;;;10.41;67.74;99326.47;5072667;28;20131;-85
2022/04/06 11:25:24;;;;;;;6.70;5.18;;;;;;;10.18;68.81;99342.78;5081691;28;20055;-83
2022/04/06 11:27:51;;;;;;;7.38;4.95;;;;;;;10.19;69.28;99326.19;5087376;27;20047;-83
2022/04/06 11:30:21;;;;;;;9.30;5.47;;;;;;;10.22;68.95;99324.38;5069050;28;20050;-83
2022/04/06 11:32:55;;;;;;;8.57;5.63;;;;;;;10.30;68.16;99329.38;5076327;28;20055;-83
2022/04/06 11:35:28;;;;;;;9.27;6.33;;;;;;;10.53;67.93;99318.25;5087912;28;20528;-83
2022/04/06 11:37:56;;;;;;;9.48;5.10;;;;;;;10.68;66.83;99342.25;5084652;28;20304;-83
2022/04/06 11:40:25;;;;;;;5.35;4.85;;;;;;;10.92;66.72;99325.78;5073183;28;20050;-85
2022/04/06 11:43:02;;;;;;;8.60;4.25;;;;;;;11.19;65.22;99311.84;5072698;28;20054;-83
2022/04/06 11:45:47;;;;;;;6.35;4.22;;;;;;;11.01;65.64;99329.84;5089167;28;20039;-85